Time;durP1;ratioP1;P1;durP2;ratioP2;P2;SDS_P1;SDS_P2;PMS_P1;PMS_P2;Temp;Humidity;BMP_temperature;BMP_pressure;BME280_temperature;BME280_humidity;BME280_pressure;Samples;Min_cycle;Max_cycle;Signal;HPM_P1;HPM_P2
2022/10/26 00:01:04;;;;;;;0.82;0.77;;;;;;;;;;5051437;28;20508;-90
2022/10/26 00:03:33;;;;;;;1.67;0.70;;;;;;;;;;5048620;28;20098;-91
2022/10/26 00:06:06;;;;;;;0.80;0.45;;;;;;;;;;5054354;28;20061;-91
2022/10/26 00:08:34;;;;;;;0.85;0.30;;;;;;;;;;5050911;28;20048;-90
2022/10/26 00:11:02;;;;;;;0.98;0.52;;;;;;;;;;5062934;28;20468;-91
2022/10/26 00:13:31;;;;;;;0.70;0.30;;;;;;;;;;5040489;28;20497;-90
2022/10/26 00:16:01;;;;;;;1.85;0.50;;;;;;;;;;5048875;28;20046;-90
2022/10/26 00:18:29;;;;;;;0.30;0.30;;;;;;;;;;5046740;28;20409;-90
2022/10/26 00:21:03;;;;;;;0.38;0.30;;;;;;;;;;5064610;28;20143;-90
2022/10/26 00:23:31;;;;;;;0.40;0.30;;;;;;;;;;5049268;28;20504;-90
2022/10/26 00:26:00;;;;;;;0.52;0.40;;;;;;;;;;5071231;28;20048;-90
2022/10/26 00:28:28;;;;;;;0.88;0.43;;;;;;;;;;5053897;28;20049;-90
2022/10/26 00:31:02;;;;;;;4.43;0.52;;;;;;;;;;5056341;28;20049;-89
2022/10/26 00:33:31;;;;;;;0.50;0.40;;;;;;;;;;5036556;28;20493;-89
2022/10/26 00:36:00;;;;;;;0.63;0.43;;;;;;;;;;5046271;28;20049;-89
2022/10/26 00:38:28;;;;;;;1.55;0.45;;;;;;;;;;5050136;28;20061;-89
2022/10/26 00:40:56;;;;;;;0.40;0.40;;;;;;;;;;5043635;28;20041;-91
2022/10/26 00:43:39;;;;;;;1.08;0.60;;;;;;;;;;5040641;28;20064;-90
2022/10/26 00:46:15;;;;;;;1.05;0.47;;;;;;;;;;5045774;28;20056;-89
2022/10/26 00:48:46;;;;;;;1.70;0.43;;;;;;;;;;5055939;28;20404;-90
2022/10/26 00:51:18;;;;;;;1.40;0.45;;;;;;;;;;5052050;28;20120;-91
2022/10/26 00:53:46;;;;;;;0.30;0.30;;;;;;;;;;5047444;28;20056;-91
2022/10/26 00:56:15;;;;;;;2.28;0.47;;;;;;;;;;5046015;28;20056;-91
2022/10/26 00:58:43;;;;;;;6.45;0.45;;;;;;;;;;5048105;28;20496;-91
2022/10/26 01:01:12;;;;;;;2.55;1.00;;;;;;;;;;5065294;28;20543;-90
2022/10/26 01:03:41;;;;;;;0.77;0.40;;;;;;;;;;5048716;28;20068;-90
2022/10/26 01:06:12;;;;;;;0.35;0.35;;;;;;;;;;5048966;28;20139;-90
2022/10/26 01:08:42;;;;;;;0.35;0.35;;;;;;;;;;5046537;28;20535;-91
2022/10/26 01:11:10;;;;;;;0.40;0.40;;;;;;;;;;5050117;28;20064;-91
2022/10/26 01:13:39;;;;;;;0.55;0.35;;;;;;;;;;5040783;28;20076;-90
2022/10/26 01:16:13;;;;;;;1.27;0.30;;;;;;;;;;5045118;28;20044;-90
2022/10/26 01:18:48;;;;;;;0.85;0.47;;;;;;;;;;5051509;28;20092;-91
2022/10/26 01:21:29;;;;;;;0.43;0.40;;;;;;;;;;5048266;28;20351;-90
2022/10/26 01:24:04;;;;;;;0.30;0.30;;;;;;;;;;5050780;28;20050;-90
2022/10/26 01:26:32;;;;;;;;;;;;;;;;;;5048180;28;20389;-90
2022/10/26 01:29:11;;;;;;;0.95;0.35;;;;;;;;;;5052161;28;20498;-91
2022/10/26 01:31:42;;;;;;;2.17;0.73;;;;;;;;;;5044481;28;20061;-90
2022/10/26 01:34:13;;;;;;;2.40;0.35;;;;;;;;;;5049028;28;20040;-90
2022/10/26 01:36:43;;;;;;;0.40;0.38;;;;;;;;;;5048391;28;20055;-90
2022/10/26 01:39:14;;;;;;;0.80;0.70;;;;;;;;;;5050611;28;20053;-90
2022/10/26 01:41:45;;;;;;;0.73;0.20;;;;;;;;;;5036927;28;20124;-87
2022/10/26 01:44:15;;;;;;;1.55;0.57;;;;;;;;;;5052079;28;20511;-91
2022/10/26 01:46:47;;;;;;;0.70;0.40;;;;;;;;;;5050268;28;20353;-91
2022/10/26 01:49:17;;;;;;;0.30;0.30;;;;;;;;;;5050606;28;20056;-91
2022/10/26 01:51:45;;;;;;;0.38;0.38;;;;;;;;;;5052641;28;20052;-91
2022/10/26 01:54:14;;;;;;;0.70;0.50;;;;;;;;;;5049148;28;20037;-89
2022/10/26 01:56:43;;;;;;;1.73;0.70;;;;;;;;;;5046714;28;20118;-90
2022/10/26 01:59:29;;;;;;;0.28;0.28;;;;;;;;;;5051211;28;20052;-91
2022/10/26 02:02:06;;;;;;;0.40;0.40;;;;;;;;;;5028904;28;20493;-90
2022/10/26 02:04:37;;;;;;;1.02;0.50;;;;;;;;;;5049076;28;20053;-90
2022/10/26 02:07:10;;;;;;;1.05;0.40;;;;;;;;;;5045177;28;20037;-90
2022/10/26 02:09:42;;;;;;;0.32;0.30;;;;;;;;;;5040610;28;20049;-91
2022/10/26 02:12:13;;;;;;;0.90;0.60;;;;;;;;;;5045434;28;20045;-91
2022/10/26 02:14:47;;;;;;;0.50;0.43;;;;;;;;;;5039677;28;20057;-90
2022/10/26 02:17:21;;;;;;;0.40;0.40;;;;;;;;;;5065225;28;20056;-90
2022/10/26 02:19:52;;;;;;;3.92;0.63;;;;;;;;;;5056705;28;20057;-90
2022/10/26 02:22:22;;;;;;;2.50;0.47;;;;;;;;;;5047797;28;20044;-92
2022/10/26 02:24:53;;;;;;;0.68;0.25;;;;;;;;;;5054827;28;20528;-92
2022/10/26 02:27:23;;;;;;;0.70;0.50;;;;;;;;;;5039123;28;20058;-92
2022/10/26 02:29:52;;;;;;;1.00;0.30;;;;;;;;;;5043328;28;20049;-90
2022/10/26 02:32:23;;;;;;;0.80;0.32;;;;;;;;;;5042557;28;20045;-91
2022/10/26 02:34:52;;;;;;;0.47;0.20;;;;;;;;;;5058654;28;20056;-91
2022/10/26 02:37:21;;;;;;;0.35;0.30;;;;;;;;;;5060433;28;20095;-91
2022/10/26 02:39:50;;;;;;;0.55;0.40;;;;;;;;;;5049230;28;20435;-91
2022/10/26 02:42:19;;;;;;;0.80;0.50;;;;;;;;;;5039552;28;20049;-91
2022/10/26 02:44:49;;;;;;;2.08;0.60;;;;;;;;;;5046217;28;20595;-91
2022/10/26 02:47:18;;;;;;;0.80;0.60;;;;;;;;;;5055617;28;20049;-88
2022/10/26 02:49:48;;;;;;;2.47;0.70;;;;;;;;;;5048349;28;20052;-91
2022/10/26 02:52:18;;;;;;;0.68;0.43;;;;;;;;;;5049920;28;20053;-92
2022/10/26 02:54:50;;;;;;;1.75;0.55;;;;;;;;;;5049343;28;20041;-90
2022/10/26 02:57:21;;;;;;;0.88;0.40;;;;;;;;;;5041205;28;20053;-91
2022/10/26 02:59:49;;;;;;;0.90;0.40;;;;;;;;;;5064885;28;20047;-89
2022/10/26 03:02:19;;;;;;;0.60;0.60;;;;;;;;;;5038226;28;20049;-90
2022/10/26 03:04:49;;;;;;;0.47;0.32;;;;;;;;;;5058308;28;20048;-89
2022/10/26 03:07:21;;;;;;;0.30;0.30;;;;;;;;;;5042389;28;20053;-90
2022/10/26 03:09:49;;;;;;;0.43;0.43;;;;;;;;;;5053554;28;20056;-90
2022/10/26 03:12:18;;;;;;;1.70;0.30;;;;;;;;;;5033612;28;20080;-91
2022/10/26 03:14:48;;;;;;;0.40;0.30;;;;;;;;;;5051160;28;20058;-91
2022/10/26 03:17:16;;;;;;;0.30;0.25;;;;;;;;;;5048622;28;20469;-91
2022/10/26 03:19:44;;;;;;;0.73;0.32;;;;;;;;;;5045315;28;20346;-93
2022/10/26 03:22:14;;;;;;;1.98;0.40;;;;;;;;;;5045758;28;20340;-93
2022/10/26 03:24:42;;;;;;;1.08;0.55;;;;;;;;;;5042060;28;20049;-92
2022/10/26 03:27:11;;;;;;;3.55;0.63;;;;;;;;;;5053529;28;20508;-94
2022/10/26 03:29:39;;;;;;;2.28;0.63;;;;;;;;;;5058977;28;20486;-91
2022/10/26 03:32:07;;;;;;;0.70;0.55;;;;;;;;;;5044363;28;20377;-93
2022/10/26 03:34:36;;;;;;;0.55;0.32;;;;;;;;;;5062861;28;20049;-92
2022/10/26 03:37:04;;;;;;;2.65;0.57;;;;;;;;;;5049907;28;20144;-93
2022/10/26 03:39:34;;;;;;;2.42;0.47;;;;;;;;;;5060196;28;20516;-94
2022/10/26 03:42:02;;;;;;;1.85;0.88;;;;;;;;;;5041779;28;20068;-92
2022/10/26 03:44:30;;;;;;;0.75;0.63;;;;;;;;;;5054150;28;20041;-92
2022/10/26 03:46:58;;;;;;;2.85;0.82;;;;;;;;;;5052655;28;20053;-92
2022/10/26 03:49:27;;;;;;;0.63;0.52;;;;;;;;;;5051704;28;20064;-93
2022/10/26 03:51:55;;;;;;;5.20;0.80;;;;;;;;;;5050335;28;20056;-93
2022/10/26 03:54:23;;;;;;;0.52;0.50;;;;;;;;;;5051445;28;20076;-93
2022/10/26 03:56:53;;;;;;;0.20;0.20;;;;;;;;;;5042453;28;20045;-91
2022/10/26 03:59:22;;;;;;;0.57;0.57;;;;;;;;;;5047323;28;20568;-92
2022/10/26 04:01:50;;;;;;;0.95;0.60;;;;;;;;;;5048518;28;20065;-92
2022/10/26 04:04:24;;;;;;;1.03;0.50;;;;;;;;;;5050620;28;21389;-93
2022/10/26 04:06:53;;;;;;;0.82;0.63;;;;;;;;;;5056925;28;20048;-91
2022/10/26 04:09:21;;;;;;;0.25;0.25;;;;;;;;;;5051887;28;20393;-93
2022/10/26 04:11:49;;;;;;;0.55;0.55;;;;;;;;;;5044791;28;20055;-92
2022/10/26 04:14:19;;;;;;;0.40;0.40;;;;;;;;;;5052015;28;20048;-92
2022/10/26 04:16:47;;;;;;;0.60;0.50;;;;;;;;;;5048965;28;20052;-91
2022/10/26 04:19:16;;;;;;;0.38;0.32;;;;;;;;;;5064885;28;20058;-91
2022/10/26 04:21:44;;;;;;;1.20;0.73;;;;;;;;;;5057974;28;20044;-91
2022/10/26 04:24:12;;;;;;;3.20;0.70;;;;;;;;;;5048397;28;20049;-91
2022/10/26 04:26:41;;;;;;;1.60;0.70;;;;;;;;;;5058433;28;20402;-91
2022/10/26 04:29:09;;;;;;;2.20;0.60;;;;;;;;;;5047451;28;20052;-91
2022/10/26 04:31:40;;;;;;;2.95;0.60;;;;;;;;;;5044151;28;20443;-92
2022/10/26 04:34:08;;;;;;;3.97;1.25;;;;;;;;;;5043480;28;20045;-94
2022/10/26 04:36:36;;;;;;;0.47;0.30;;;;;;;;;;5041386;28;20049;-94
2022/10/26 04:39:05;;;;;;;1.17;0.77;;;;;;;;;;5046019;28;20052;-93
2022/10/26 04:41:33;;;;;;;2.22;0.47;;;;;;;;;;5045294;28;20064;-91
2022/10/26 04:44:01;;;;;;;4.53;0.50;;;;;;;;;;5047884;28;20045;-91
2022/10/26 04:46:30;;;;;;;1.85;0.55;;;;;;;;;;5045959;28;20049;-92
2022/10/26 04:48:59;;;;;;;0.40;0.30;;;;;;;;;;5042078;28;20052;-92
2022/10/26 04:51:32;;;;;;;0.98;0.32;;;;;;;;;;5039931;28;20404;-92
2022/10/26 04:54:02;;;;;;;0.50;0.40;;;;;;;;;;5048506;28;20448;-93
2022/10/26 04:56:30;;;;;;;0.70;0.50;;;;;;;;;;5059462;28;20045;-91
2022/10/26 04:59:02;;;;;;;1.00;0.45;;;;;;;;;;5042732;28;20495;-92
2022/10/26 05:01:31;;;;;;;0.35;0.22;;;;;;;;;;5042239;28;20060;-92
2022/10/26 05:04:01;;;;;;;1.45;0.57;;;;;;;;;;5049769;28;20087;-90
2022/10/26 05:06:30;;;;;;;0.30;0.30;;;;;;;;;;5043200;28;20056;-92
2022/10/26 05:08:58;;;;;;;0.65;0.40;;;;;;;;;;5040972;28;20072;-89
2022/10/26 05:11:26;;;;;;;4.32;0.43;;;;;;;;;;5045934;28;20041;-88
2022/10/26 05:13:55;;;;;;;2.00;1.00;;;;;;;;;;5041097;28;20049;-90
2022/10/26 05:16:24;;;;;;;1.75;0.70;;;;;;;;;;5042191;28;20045;-88
2022/10/26 05:18:52;;;;;;;0.60;0.35;;;;;;;;;;5062320;28;20048;-87
2022/10/26 05:21:22;;;;;;;4.28;0.65;;;;;;;;;;5031863;28;20038;-87
2022/10/26 05:23:52;;;;;;;3.80;0.90;;;;;;;;;;5052622;28;20382;-88
2022/10/26 05:26:20;;;;;;;3.35;0.90;;;;;;;;;;5055517;28;20128;-88
2022/10/26 05:28:49;;;;;;;2.60;1.48;;;;;;;;;;5042381;28;20047;-87
2022/10/26 05:31:17;;;;;;;3.10;0.85;;;;;;;;;;5058654;28;20132;-87
2022/10/26 05:33:48;;;;;;;0.82;0.82;;;;;;;;;;5051929;28;20051;-88
2022/10/26 05:36:17;;;;;;;1.70;1.00;;;;;;;;;;5061690;28;20457;-88
2022/10/26 05:38:47;;;;;;;1.75;0.65;;;;;;;;;;5032923;28;20466;-87
2022/10/26 05:41:15;;;;;;;0.63;0.40;;;;;;;;;;5039199;28;20051;-87
2022/10/26 05:43:43;;;;;;;3.30;0.90;;;;;;;;;;5055122;28;20052;-87
2022/10/26 05:46:11;;;;;;;2.58;0.98;;;;;;;;;;5047383;28;20071;-87
2022/10/26 05:48:40;;;;;;;3.85;1.70;;;;;;;;;;5055670;28;20489;-89
2022/10/26 05:51:09;;;;;;;4.30;1.95;;;;;;;;;;5035923;28;20052;-89
2022/10/26 05:53:37;;;;;;;4.43;1.83;;;;;;;;;;5038031;28;20147;-89
2022/10/26 05:56:14;;;;;;;3.95;1.90;;;;;;;;;;5038884;28;20056;-89
2022/10/26 05:58:42;;;;;;;6.35;1.95;;;;;;;;;;5050785;28;20049;-88
2022/10/26 06:01:15;;;;;;;5.22;1.92;;;;;;;;;;5057370;28;20168;-89
2022/10/26 06:03:51;;;;;;;1.90;1.30;;;;;;;;;;5061257;28;20416;-89
2022/10/26 06:06:20;;;;;;;3.33;1.73;;;;;;;;;;5056609;28;20061;-90
2022/10/26 06:08:49;;;;;;;2.58;1.60;;;;;;;;;;5061535;28;20055;-90
2022/10/26 06:11:19;;;;;;;4.47;0.93;;;;;;;;;;5054946;28;20070;-90
2022/10/26 06:13:47;;;;;;;1.17;0.88;;;;;;;;;;5043488;28;20054;-89
2022/10/26 06:16:23;;;;;;;1.45;0.68;;;;;;;;;;5059739;28;20052;-88
2022/10/26 06:18:56;;;;;;;0.90;0.73;;;;;;;;;;5056200;28;20073;-87
2022/10/26 06:21:36;;;;;;;2.78;1.08;;;;;;;;;;5070257;28;20484;-88
2022/10/26 06:24:08;;;;;;;3.67;1.73;;;;;;;;;;5066072;28;20458;-88
2022/10/26 06:26:42;;;;;;;1.67;1.35;;;;;;;;;;5055649;28;20059;-88
2022/10/26 06:29:16;;;;;;;1.00;0.90;;;;;;;;;;5052454;28;20060;-88
2022/10/26 06:31:45;;;;;;;4.00;0.97;;;;;;;;;;5072264;28;20403;-88
2022/10/26 06:34:19;;;;;;;2.28;1.10;;;;;;;;;;5062282;28;20049;-88
2022/10/26 06:36:48;;;;;;;0.85;0.52;;;;;;;;;;5063435;28;20074;-88
2022/10/26 06:39:17;;;;;;;2.80;0.77;;;;;;;;;;5070224;28;20052;-88
2022/10/26 06:41:47;;;;;;;2.13;0.43;;;;;;;;;;5062889;28;20049;-88
2022/10/26 06:44:21;;;;;;;1.60;0.98;;;;;;;;;;5058500;28;20043;-89
2022/10/26 06:46:53;;;;;;;1.00;0.80;;;;;;;;;;5045667;28;20389;-89
2022/10/26 06:49:23;;;;;;;1.83;0.77;;;;;;;;;;5065433;28;20048;-88
2022/10/26 06:51:54;;;;;;;0.75;0.50;;;;;;;;;;5057486;28;20095;-89
2022/10/26 06:54:25;;;;;;;1.40;0.70;;;;;;;;;;5062611;28;20052;-88
2022/10/26 06:56:55;;;;;;;1.23;0.80;;;;;;;;;;5060964;28;20048;-88
2022/10/26 06:59:40;;;;;;;1.73;0.90;;;;;;;;;;5056718;28;20135;-88
2022/10/26 07:02:09;;;;;;;4.32;1.45;;;;;;;;;;5063438;28;20084;-88
2022/10/26 07:04:38;;;;;;;6.28;1.95;;;;;;;;;;5042451;28;20092;-89
2022/10/26 07:07:07;;;;;;;3.47;1.85;;;;;;;;;;5058549;28;20412;-89
2022/10/26 07:09:35;;;;;;;4.40;1.65;;;;;;;;;;5055104;28;20051;-90
2022/10/26 07:12:05;;;;;;;4.50;1.55;;;;;;;;;;5067589;28;20067;-89
2022/10/26 07:14:33;;;;;;;0.80;0.80;;;;;;;;;;5054438;28;20049;-89
2022/10/26 07:17:03;;;;;;;2.30;0.70;;;;;;;;;;5059277;28;20068;-89
2022/10/26 07:19:31;;;;;;;1.67;1.25;;;;;;;;;;5062760;28;20123;-89
2022/10/26 07:22:00;;;;;;;0.73;0.70;;;;;;;;;;5048552;28;20432;-89
2022/10/26 07:24:28;;;;;;;1.67;0.77;;;;;;;;;;5052967;28;20489;-87
2022/10/26 07:26:57;;;;;;;0.47;0.47;;;;;;;;;;5072456;28;20054;-90
2022/10/26 07:29:27;;;;;;;1.17;0.63;;;;;;;;;;5063343;28;20050;-90
2022/10/26 07:31:56;;;;;;;0.70;0.65;;;;;;;;;;5057447;28;20072;-87
2022/10/26 07:34:24;;;;;;;0.88;0.50;;;;;;;;;;5054343;28;20044;-88
2022/10/26 07:36:53;;;;;;;0.73;0.52;;;;;;;;;;5046923;28;20049;-88
2022/10/26 07:39:22;;;;;;;1.77;0.93;;;;;;;;;;5056386;28;20045;-89
2022/10/26 07:41:50;;;;;;;1.38;0.45;;;;;;;;;;5065987;28;20041;-88
2022/10/26 07:44:19;;;;;;;1.08;0.55;;;;;;;;;;5057600;28;20374;-88
2022/10/26 07:46:49;;;;;;;2.17;0.52;;;;;;;;;;5068518;28;20415;-88
2022/10/26 07:49:17;;;;;;;0.35;0.35;;;;;;;;;;5067810;28;20040;-88
2022/10/26 07:51:47;;;;;;;0.60;0.35;;;;;;;;;;5072704;28;20062;-90
2022/10/26 07:54:16;;;;;;;1.08;0.60;;;;;;;;;;5048530;28;20128;-90
2022/10/26 07:56:45;;;;;;;0.95;0.70;;;;;;;;;;5062188;28;20055;-89
2022/10/26 07:59:14;;;;;;;0.60;0.55;;;;;;;;;;5061100;28;20069;-90
2022/10/26 08:01:42;;;;;;;2.20;0.60;;;;;;;;;;5062743;28;20053;-89
2022/10/26 08:04:13;;;;;;;0.45;0.30;;;;;;;;;;5057841;28;20053;-89
2022/10/26 08:06:41;;;;;;;12.55;0.93;;;;;;;;;;5072836;28;20062;-89
2022/10/26 08:09:10;;;;;;;0.47;0.47;;;;;;;;;;5061453;28;20179;-88
2022/10/26 08:11:38;;;;;;;0.45;0.40;;;;;;;;;;5057099;28;20084;-89
2022/10/26 08:14:06;;;;;;;1.40;0.43;;;;;;;;;;5052133;28;20389;-89
2022/10/26 08:16:38;;;;;;;0.55;0.20;;;;;;;;;;5059760;28;20048;-88
2022/10/26 08:19:08;;;;;;;5.07;0.68;;;;;;;;;;5045323;28;20052;-87
2022/10/26 08:21:38;;;;;;;0.40;0.30;;;;;;;;;;5053613;28;20048;-88
2022/10/26 08:24:08;;;;;;;1.10;0.73;;;;;;;;;;5057642;28;20497;-88
2022/10/26 08:26:37;;;;;;;0.60;0.45;;;;;;;;;;5051148;28;20477;-88
2022/10/26 08:29:05;;;;;;;1.30;0.30;;;;;;;;;;5038810;28;20128;-89
2022/10/26 08:31:34;;;;;;;1.08;0.70;;;;;;;;;;5051615;28;20106;-88
2022/10/26 08:34:03;;;;;;;0.63;0.25;;;;;;;;;;5070310;28;20500;-88
2022/10/26 08:36:31;;;;;;;0.60;0.38;;;;;;;;;;5063225;28;20047;-88
2022/10/26 08:39:01;;;;;;;2.30;0.70;;;;;;;;;;5063677;28;20397;-88
2022/10/26 08:41:34;;;;;;;0.57;0.17;;;;;;;;;;5062711;28;20073;-87
2022/10/26 08:44:05;;;;;;;0.80;0.30;;;;;;;;;;5051228;28;20087;-89
2022/10/26 08:46:37;;;;;;;0.77;0.38;;;;;;;;;;5055586;28;20048;-88
2022/10/26 08:49:10;;;;;;;0.95;0.43;;;;;;;;;;5048914;28;20083;-88
2022/10/26 08:51:40;;;;;;;2.83;0.68;;;;;;;;;;5047060;28;20048;-88
2022/10/26 08:54:13;;;;;;;0.93;0.55;;;;;;;;;;5052002;28;20060;-88
2022/10/26 08:56:43;;;;;;;0.65;0.43;;;;;;;;;;5051014;28;20055;-87
2022/10/26 08:59:21;;;;;;;0.93;0.60;;;;;;;;;;5051398;28;20052;-87
2022/10/26 09:01:49;;;;;;;0.73;0.30;;;;;;;;;;5044669;28;20535;-87
2022/10/26 09:04:18;;;;;;;0.88;0.40;;;;;;;;;;5053309;28;20125;-88
2022/10/26 09:06:50;;;;;;;0.43;0.20;;;;;;;;;;5053422;28;20056;-91
2022/10/26 09:09:22;;;;;;;1.02;0.17;;;;;;;;;;5050662;28;20144;-90
2022/10/26 09:11:56;;;;;;;1.55;0.85;;;;;;;;;;5047461;28;20052;-87
2022/10/26 09:14:31;;;;;;;0.52;0.10;;;;;;;;;;5050630;28;20049;-89
2022/10/26 09:17:07;;;;;;;0.47;0.38;;;;;;;;;;5050197;28;20513;-87
2022/10/26 09:19:46;;;;;;;4.50;0.75;;;;;;;;;;5041041;28;20045;-88
2022/10/26 09:22:17;;;;;;;0.32;0.28;;;;;;;;;;5052107;28;20060;-88
2022/10/26 09:24:50;;;;;;;0.40;0.40;;;;;;;;;;5047450;28;20038;-87
2022/10/26 09:27:21;;;;;;;0.70;0.20;;;;;;;;;;5036390;28;20045;-88
2022/10/26 09:29:51;;;;;;;0.70;0.20;;;;;;;;;;5054425;28;20056;-88
2022/10/26 09:32:21;;;;;;;0.17;0.17;;;;;;;;;;5056219;28;20385;-89
2022/10/26 09:34:51;;;;;;;0.30;0.30;;;;;;;;;;5054585;28;20044;-87
2022/10/26 09:37:20;;;;;;;0.20;0.20;;;;;;;;;;5044661;28;20056;-87
2022/10/26 09:39:53;;;;;;;0.20;0.17;;;;;;;;;;5052928;28;20040;-93
2022/10/26 09:42:23;;;;;;;0.30;0.30;;;;;;;;;;5046222;28;20046;-87
2022/10/26 09:44:55;;;;;;;1.20;1.10;;;;;;;;;;5056317;28;20059;-87
2022/10/26 09:47:27;;;;;;;0.50;0.30;;;;;;;;;;5051354;28;20055;-87
2022/10/26 09:49:59;;;;;;;0.70;0.30;;;;;;;;;;5058024;28;20527;-89
2022/10/26 09:52:27;;;;;;;0.65;0.30;;;;;;;;;;5055353;28;20037;-87
2022/10/26 09:54:57;;;;;;;0.38;0.20;;;;;;;;;;5050015;28;20048;-87
2022/10/26 09:57:26;;;;;;;0.20;0.20;;;;;;;;;;5049578;28;20493;-88
2022/10/26 09:59:54;;;;;;;0.20;0.20;;;;;;;;;;5033640;28;20058;-88
2022/10/26 10:02:42;;;;;;;1.13;0.35;;;;;;;;;;5045404;28;20067;-90
2022/10/26 10:05:27;;;;;;;1.27;0.40;;;;;;;;;;5057099;28;20107;-87
2022/10/26 10:08:17;;;;;;;1.95;0.30;;;;;;;;;;5050579;28;20045;-90
2022/10/26 10:10:58;;;;;;;0.40;0.40;;;;;;;;;;5050734;28;20053;-87
2022/10/26 10:13:28;;;;;;;0.60;0.28;;;;;;;;;;5067467;28;20045;-89
2022/10/26 10:15:58;;;;;;;1.55;0.63;;;;;;;;;;5060991;28;20055;-88
2022/10/26 10:18:27;;;;;;;0.98;0.40;;;;;;;;;;5064965;28;20389;-87
2022/10/26 10:20:57;;;;;;;1.48;0.65;;;;;;;;;;5051885;28;20060;-88
2022/10/26 10:23:27;;;;;;;0.68;0.32;;;;;;;;;;5055480;28;20469;-88
2022/10/26 10:26:01;;;;;;;1.27;0.40;;;;;;;;;;5050478;28;20128;-90
2022/10/26 10:28:30;;;;;;;0.43;0.30;;;;;;;;;;5065440;28;20045;-89
2022/10/26 10:30:59;;;;;;;1.98;0.75;;;;;;;;;;5053914;28;20135;-88
2022/10/26 10:33:35;;;;;;;1.70;0.15;;;;;;;;;;5046314;28;20049;-88
2022/10/26 10:36:05;;;;;;;2.08;0.20;;;;;;;;;;5056368;28;20045;-87
2022/10/26 10:38:38;;;;;;;0.68;0.10;;;;;;;;;;5055453;28;20083;-87
2022/10/26 10:41:16;;;;;;;0.32;0.32;;;;;;;;;;5070076;28;20044;-87
2022/10/26 10:43:45;;;;;;;1.52;0.68;;;;;;;;;;5050602;28;20060;-87
2022/10/26 10:46:18;;;;;;;1.48;0.40;;;;;;;;;;5053912;28;20051;-88
2022/10/26 10:48:47;;;;;;;0.88;0.30;;;;;;;;;;5043406;28;20049;-88
2022/10/26 10:51:20;;;;;;;0.10;0.10;;;;;;;;;;5036988;28;20055;-88
2022/10/26 10:53:49;;;;;;;2.05;0.50;;;;;;;;;;5036745;28;20052;-88
2022/10/26 10:56:25;;;;;;;0.40;0.30;;;;;;;;;;5050484;28;20588;-88
2022/10/26 10:59:00;;;;;;;1.95;0.30;;;;;;;;;;5048727;28;20052;-88
2022/10/26 11:01:31;;;;;;;0.38;0.20;;;;;;;;;;5052341;28;20109;-89
2022/10/26 11:04:07;;;;;;;0.15;0.15;;;;;;;;;;5054324;28;20076;-89
2022/10/26 11:06:37;;;;;;;0.10;0.10;;;;;;;;;;5053502;28;20103;-91
2022/10/26 11:09:08;;;;;;;1.75;0.88;;;;;;;;;;5060298;28;20045;-95
2022/10/26 11:11:40;;;;;;;0.20;0.20;;;;;;;;;;5068363;28;20048;-88
2022/10/26 11:14:14;;;;;;;0.15;0.10;;;;;;;;;;5051673;28;20084;-89
2022/10/26 11:16:44;;;;;;;0.08;0.08;;;;;;;;;;5045997;28;20045;-87
2022/10/26 11:19:18;;;;;;;0.73;0.73;;;;;;;;;;5046117;28;20060;-87
2022/10/26 11:21:49;;;;;;;1.10;0.20;;;;;;;;;;5068767;28;20052;-89
2022/10/26 11:24:21;;;;;;;0.10;0.10;;;;;;;;;;5066578;28;20068;-88
2022/10/26 11:26:54;;;;;;;0.57;0.10;;;;;;;;;;5045005;28;20528;-89
2022/10/26 11:29:27;;;;;;;0.85;0.25;;;;;;;;;;5070780;28;20055;-88
2022/10/26 11:31:59;;;;;;;4.07;0.75;;;;;;;;;;5040625;28;20049;-87
2022/10/26 11:34:30;;;;;;;0.65;0.30;;;;;;;;;;5037654;28;20494;-88
2022/10/26 11:37:02;;;;;;;0.63;0.20;;;;;;;;;;5036469;28;20128;-89
2022/10/26 11:39:35;;;;;;;1.10;0.47;;;;;;;;;;5033102;28;20466;-87
2022/10/26 11:42:07;;;;;;;0.10;0.10;;;;;;;;;;5031602;28;20060;-87
2022/10/26 11:44:38;;;;;;;2.63;0.30;;;;;;;;;;5032959;28;20068;-88
2022/10/26 11:47:10;;;;;;;4.93;0.35;;;;;;;;;;5035257;28;20055;-87
2022/10/26 11:49:42;;;;;;;0.77;0.40;;;;;;;;;;5031327;28;20073;-89
2022/10/26 11:52:16;;;;;;;0.50;0.35;;;;;;;;;;5033078;28;20248;-88
2022/10/26 11:54:46;;;;;;;1.17;0.40;;;;;;;;;;5050197;28;20049;-96
2022/10/26 11:57:17;;;;;;;2.53;0.30;;;;;;;;;;5047210;28;20041;-93
2022/10/26 11:59:48;;;;;;;1.00;0.32;;;;;;;;;;5047637;28;20044;-88
2022/10/26 12:02:20;;;;;;;0.47;0.35;;;;;;;;;;5057292;28;20119;-90
2022/10/26 12:04:50;;;;;;;0.45;0.30;;;;;;;;;;5052912;28;20065;-88
2022/10/26 12:07:22;;;;;;;0.47;0.20;;;;;;;;;;5055459;28;20380;-87
2022/10/26 12:09:51;;;;;;;1.00;0.40;;;;;;;;;;5045900;28;20486;-87
2022/10/26 12:12:24;;;;;;;4.18;0.70;;;;;;;;;;5044681;28;20591;-89
2022/10/26 12:14:56;;;;;;;1.75;1.02;;;;;;;;;;5055588;28;20047;-87
2022/10/26 12:17:27;;;;;;;0.60;0.30;;;;;;;;;;5053303;28;20049;-90
2022/10/26 12:19:59;;;;;;;3.95;0.35;;;;;;;;;;5053628;28;20049;-93
2022/10/26 12:22:30;;;;;;;1.20;0.30;;;;;;;;;;5047399;28;20513;-89
2022/10/26 12:25:09;;;;;;;4.85;0.28;;;;;;;;;;5043368;28;20048;-88
2022/10/26 12:27:54;;;;;;;5.28;0.50;;;;;;;;;;5048083;28;20080;-87
2022/10/26 12:30:27;;;;;;;1.13;0.40;;;;;;;;;;5050753;28;20041;-88
2022/10/26 12:32:56;;;;;;;0.70;0.63;;;;;;;;;;5028195;28;20195;-92
2022/10/26 12:35:35;;;;;;;0.63;0.40;;;;;;;;;;5031941;28;20136;-87
2022/10/26 12:38:18;;;;;;;0.57;0.30;;;;;;;;;;5029398;28;20051;-88
2022/10/26 12:40:47;;;;;;;3.78;0.70;;;;;;;;;;5032323;28;20065;-92
2022/10/26 12:43:37;;;;;;;2.83;0.50;;;;;;;;;;5028518;28;20048;-87
2022/10/26 12:46:24;;;;;;;0.40;0.40;;;;;;;;;;5031291;28;20057;-86
2022/10/26 12:48:54;;;;;;;0.88;0.30;;;;;;;;;;5033560;28;20493;-87
2022/10/26 12:51:42;;;;;;;0.65;0.38;;;;;;;;;;5032089;28;20053;-91
2022/10/26 12:54:20;;;;;;;0.80;0.25;;;;;;;;;;5034603;28;20055;-87
2022/10/26 12:56:54;;;;;;;4.68;0.40;;;;;;;;;;5045664;28;20064;-90
2022/10/26 12:59:27;;;;;;;7.20;0.65;;;;;;;;;;5041930;28;20049;-96
2022/10/26 13:02:04;;;;;;;1.77;0.50;;;;;;;;;;5039862;28;20079;-89
2022/10/26 13:04:42;;;;;;;2.50;1.05;;;;;;;;;;5041464;28;20056;-90
2022/10/26 13:07:17;;;;;;;2.28;0.35;;;;;;;;;;5041675;28;20045;-89
2022/10/26 13:09:51;;;;;;;1.27;0.50;;;;;;;;;;5044832;28;20553;-90
2022/10/26 13:12:20;;;;;;;1.85;0.28;;;;;;;;;;5064536;28;20044;-91
2022/10/26 13:15:06;;;;;;;2.17;0.60;;;;;;;;;;5057047;28;20072;-88
2022/10/26 13:17:36;;;;;;;4.03;0.50;;;;;;;;;;5049091;28;20107;-89
2022/10/26 13:20:06;;;;;;;0.20;0.20;;;;;;;;;;5063236;28;20052;-87
2022/10/26 13:22:45;;;;;;;4.63;0.73;;;;;;;;;;5048835;28;20502;-85
2022/10/26 13:25:21;;;;;;;1.63;0.28;;;;;;;;;;5058132;28;20148;-87
2022/10/26 13:27:58;;;;;;;0.35;0.25;;;;;;;;;;5058216;28;20123;-87
2022/10/26 13:30:45;;;;;;;1.58;0.70;;;;;;;;;;5056071;28;20044;-86
2022/10/26 13:33:29;;;;;;;3.30;0.65;;;;;;;;;;5060296;28;20096;-90
2022/10/26 13:36:03;;;;;;;0.20;0.20;;;;;;;;;;5052296;28;20110;-89
2022/10/26 13:38:35;;;;;;;2.90;0.88;;;;;;;;;;5055102;28;20059;-94
2022/10/26 13:41:06;;;;;;;0.30;0.28;;;;;;;;;;5063972;28;20223;-89
2022/10/26 13:43:37;;;;;;;3.30;0.80;;;;;;;;;;5063332;28;20063;-86
2022/10/26 13:46:06;;;;;;;3.80;1.45;;;;;;;;;;5060356;28;20060;-87
2022/10/26 13:48:39;;;;;;;1.67;0.40;;;;;;;;;;5041504;28;20079;-91
2022/10/26 13:51:13;;;;;;;4.65;0.50;;;;;;;;;;5033634;28;20071;-84
2022/10/26 13:53:44;;;;;;;4.05;0.50;;;;;;;;;;5033507;28;20055;-88
2022/10/26 13:56:18;;;;;;;1.05;0.60;;;;;;;;;;5032430;28;20051;-86
2022/10/26 13:58:49;;;;;;;0.70;0.33;;;;;;;;;;5036612;28;20060;-86
2022/10/26 14:01:20;;;;;;;0.75;0.35;;;;;;;;;;5034814;28;20307;-87
2022/10/26 14:03:50;;;;;;;2.33;0.65;;;;;;;;;;5045522;28;20111;-86
2022/10/26 14:06:20;;;;;;;1.55;0.82;;;;;;;;;;5065701;28;20068;-86
2022/10/26 14:08:51;;;;;;;2.85;0.98;;;;;;;;;;5045190;28;20037;-86
2022/10/26 14:11:21;;;;;;;1.35;0.57;;;;;;;;;;5061583;28;20504;-85
2022/10/26 14:13:50;;;;;;;1.10;0.35;;;;;;;;;;5058231;28;20103;-88
2022/10/26 14:16:21;;;;;;;5.95;0.85;;;;;;;;;;5057481;28;20055;-85
2022/10/26 14:18:51;;;;;;;3.75;0.43;;;;;;;;;;5050929;28;20508;-86
2022/10/26 14:21:21;;;;;;;0.95;0.65;;;;;;;;;;5046489;28;20123;-84
2022/10/26 14:23:51;;;;;;;0.85;0.47;;;;;;;;;;5048289;28;20053;-86
2022/10/26 14:26:20;;;;;;;5.88;0.57;;;;;;;;;;5050327;28;20049;-87
2022/10/26 14:28:50;;;;;;;1.05;0.60;;;;;;;;;;5056138;28;20520;-85
2022/10/26 14:31:23;;;;;;;0.52;0.30;;;;;;;;;;5049916;28;20053;-85
2022/10/26 14:33:53;;;;;;;0.57;0.32;;;;;;;;;;5044415;28;20045;-86
2022/10/26 14:36:23;;;;;;;0.88;0.60;;;;;;;;;;5041872;28;20143;-86
2022/10/26 14:38:54;;;;;;;9.32;0.43;;;;;;;;;;5048650;28;20069;-87
2022/10/26 14:41:25;;;;;;;6.78;0.50;;;;;;;;;;5045008;28;20161;-85
2022/10/26 14:43:54;;;;;;;0.73;0.50;;;;;;;;;;5048919;28;20052;-85
2022/10/26 14:46:23;;;;;;;0.80;0.40;;;;;;;;;;5054679;28;20145;-86
2022/10/26 14:48:55;;;;;;;0.73;0.57;;;;;;;;;;5066877;28;20278;-85
2022/10/26 14:51:27;;;;;;;0.82;0.82;;;;;;;;;;5056657;28;20060;-85
2022/10/26 14:53:57;;;;;;;1.05;0.77;;;;;;;;;;5060518;28;20068;-86
2022/10/26 14:56:28;;;;;;;0.63;0.57;;;;;;;;;;5072144;28;20531;-86
2022/10/26 14:58:57;;;;;;;2.28;0.50;;;;;;;;;;5058366;28;20051;-86
2022/10/26 15:01:30;;;;;;;0.43;0.40;;;;;;;;;;5064707;28;20198;-87
2022/10/26 15:04:05;;;;;;;0.65;0.65;;;;;;;;;;5054597;28;20049;-85
2022/10/26 15:06:36;;;;;;;0.35;0.35;;;;;;;;;;5057527;28;20060;-86